KOKZ

Details ICAO KOKZ
Name KAOLIN FLD
Region United States
Timezone America/New_York (UTC-5.0)
Plans Departing 1
Arriving 2
Stats Elevation 438 ft / 134 m (AMSL)
Location 32.966712° -82.838171°
Runways 1
Magnetic Variation 6.078° W
Sunrise 2017-12-18 12:30:07 UTC / 2017-12-18 07:30:07 Local
Sunset 2017-12-18 22:28:44 UTC / 2017-12-18 17:28:44 Local
Advertisement - Login to hide

Runways

ID Width Length Bearing (true) Bearing (mag) Surface Threshold Offset Overrun Length
12 75 ft / 23 m 5,013 ft / 1,528 m 120.57° 126.65° Asphalt 0 ft / 0 m 0 ft / 0 m
30 75 ft / 23 m 5,013 ft / 1,528 m 300.58° 306.66° Asphalt 0 ft / 0 m 0 ft / 0 m

Map

Weather


0- 5 10 15 20 25 30 35+ Temperature / ° C

Clouds and Precipitation
Forecast for 2017-12-18 12:00 UTC. Updated an hour ago

Ground ~20,000 ft ~40,000 ft Winds

METAR

KOKZ 181215Z AUTO 00000KT 10SM OVC006 13/08 A3019 RMK AO2 T01260081

TAF

Not found

Frequencies

Recorded 120.57 MHz AWOS 3
Approach 119.60 MHz ATLANTA APP/DEP
Unicom 123.00 MHz CTAF/UNICOM
Approach 124.20 MHz ATLANTA APP/DEP
Warning: Do not use this data for real-world aviation or navigation. No guarantee of current accuracy is given.